Alpena County Regional Airport
KAPN : rendu visible

Aérodrome :











RETROUVEZ-NOUS SUR...

 
LOGIN :

S'inscrire | Disclaimer

   EN    FR    IT 

 









Légende :    VFR   VFR Marginal   IFR   IFR Intensif   IFR Très Intensif
Visi : 
Plafond : 
>= 8 km
>= 3000ft
5 à 8 km
1000 à 3000 ft
1500m à 5 km
500 à 1000 ft
800 à 1500m
200 à 500 ft
< 800m
< 200 ft
Symboles :   Orages  Brouillard  Fortes neiges  Fortes précipitations  Vent > 20 kt






- Altitude de l'aérodrome : 690 ft
- Code IATA : APN


KAPN - Alpena County Regional

DERNIER METAR :
  • 191454Z 15003KT 7SM FEW025 SCT031 OVC041 02/00 A2978 RMK AO2 SLP091 T00220000 51007

METARs EXPIRÉS :
  • 191450Z 00000KT 7SM SCT025 BKN031 OVC041 02/00 A2978 RMK AO2
  • 191354Z 00000KT 7SM BKN026 OVC035 02/00 A2977 RMK AO2 SLP090 T00170000
  • 191254Z 00000KT 6SM BR OVC025 01/M01 A2976 RMK AO2 SLP085 T00111006

TAF KAPN
Valide du 19 à 12h jusqu'au 20 à 12h UTC


191120Z 1912/2012 00000KT P6SM FEW026 OVC045
TEMPO 1912/1914 OVC026
FM191400 20003KT P6SM OVC025
FM191900 24003KT P6SM OVC025
FM200000 27003KT P6SM OVC022
FM200800 VRB03KT P6SM BKN025



MET'MAP, la Météo Aéronautique d'un coup d'oeil ! - Copyright ORBIFLY Décembre 2007 - Disclaimer

ORBIFLY MET'MAP TEAM :

Programmation & Développement : Alexandra Zaïnal
Conception & Développement : Baudouin d'Aumeries
Co-Programmation & Développement : Marc-Olivier Méhu
Soutien technique & logistique : Manuel Goepfert

Contact : metmap@orbifly.com




SOURCES & CREDITS :

   NOAA       Earth
Advisory